createdAt,value
2019-03-18T00:01:23.395Z,1.80
2019-03-18T00:03:53.115Z,1.35
2019-03-18T00:06:24.075Z,1.50
2019-03-18T00:08:53.910Z,1.20
2019-03-18T00:11:23.607Z,1.62
2019-03-18T00:13:53.287Z,1.22
2019-03-18T00:16:23.971Z,2.40
2019-03-18T00:18:53.673Z,1.65
2019-03-18T00:21:26.515Z,1.60
2019-03-18T00:23:57.192Z,1.70
2019-03-18T00:26:28.851Z,2.33
2019-03-18T00:28:59.729Z,1.60
2019-03-18T00:31:35.867Z,2.08
2019-03-18T00:34:07.683Z,1.75
2019-03-18T00:36:39.347Z,1.40
2019-03-18T00:39:11.589Z,1.50
2019-03-18T00:41:41.443Z,1.60
2019-03-18T00:44:12.311Z,1.87
2019-03-18T00:46:44.151Z,1.80
2019-03-18T00:49:13.832Z,1.87
2019-03-18T00:51:44.759Z,1.80
2019-03-18T00:54:15.519Z,1.70
2019-03-18T00:56:45.567Z,1.40
2019-03-18T00:59:15.409Z,1.60
2019-03-18T01:01:45.096Z,1.52
2019-03-18T01:04:14.779Z,1.55
2019-03-18T01:06:44.543Z,1.95
2019-03-18T01:09:14.515Z,2.12
2019-03-18T01:11:46.335Z,1.50
2019-03-18T01:14:24.856Z,1.40
2019-03-18T01:16:54.575Z,1.52
2019-03-18T01:19:24.545Z,1.70
2019-03-18T01:21:54.647Z,1.95
2019-03-18T01:24:24.755Z,1.60
2019-03-18T01:26:54.575Z,1.75
2019-03-18T01:29:29.165Z,1.35
2019-03-18T01:32:05.047Z,2.05
2019-03-18T01:34:34.882Z,2.10
2019-03-18T01:37:05.607Z,2.20
2019-03-18T01:39:41.644Z,1.62
2019-03-18T01:42:16.740Z,2.05
2019-03-18T01:44:45.336Z,1.80
2019-03-18T01:47:15.955Z,2.30
2019-03-18T01:49:45.926Z,2.30
2019-03-18T01:52:17.734Z,2.00
2019-03-18T01:54:47.553Z,1.90
2019-03-18T01:57:19.739Z,2.12
2019-03-18T01:59:50.548Z,1.90
2019-03-18T02:02:20.576Z,1.80
2019-03-18T02:04:51.422Z,2.00
2019-03-18T02:07:23.603Z,1.90
2019-03-18T02:09:53.542Z,1.47
2019-03-18T02:12:25.348Z,1.27
2019-03-18T02:14:56.209Z,1.55
2019-03-18T02:17:26.295Z,1.92
2019-03-18T02:19:57.463Z,1.55
2019-03-18T02:22:36.408Z,1.70
2019-03-18T02:25:08.291Z,1.65
2019-03-18T02:27:45.035Z,1.30
2019-03-18T02:30:19.906Z,1.62
2019-03-18T02:32:49.629Z,1.60
2019-03-18T02:35:21.651Z,1.75
2019-03-18T02:37:57.655Z,1.47
2019-03-18T02:40:27.599Z,1.37
2019-03-18T02:42:58.416Z,1.95
2019-03-18T02:45:28.127Z,2.00
2019-03-18T02:48:00.076Z,2.50
2019-03-18T02:50:29.924Z,1.32
2019-03-18T02:53:01.791Z,1.25
2019-03-18T02:55:33.626Z,1.85
2019-03-18T02:58:03.316Z,1.37
2019-03-18T03:00:36.011Z,1.10
2019-03-18T03:03:05.964Z,1.47
2019-03-18T03:05:36.748Z,1.27
2019-03-18T03:08:13.412Z,1.20
2019-03-18T03:10:43.384Z,1.40
2019-03-18T03:13:15.187Z,1.20
2019-03-18T03:15:50.264Z,1.27
2019-03-18T03:18:20.083Z,1.20
2019-03-18T03:20:55.838Z,1.07
2019-03-18T03:23:36.358Z,1.10
2019-03-18T03:26:06.456Z,1.00
2019-03-18T03:28:37.289Z,1.20
2019-03-18T03:31:13.309Z,1.17
2019-03-18T03:33:43.382Z,1.30
2019-03-18T03:36:13.471Z,1.60
2019-03-18T03:38:43.575Z,1.02
2019-03-18T03:41:17.753Z,1.40
2019-03-18T03:43:46.774Z,1.62
2019-03-18T03:46:16.484Z,1.20
2019-03-18T03:49:05.618Z,1.45
2019-03-18T03:51:37.249Z,1.22
2019-03-18T03:54:07.905Z,1.30
2019-03-18T03:56:38.028Z,1.32
2019-03-18T03:59:07.841Z,1.42
2019-03-18T04:01:39.573Z,1.30
2019-03-18T04:04:09.546Z,1.25
2019-03-18T04:06:45.551Z,1.20
2019-03-18T04:09:15.332Z,1.17
2019-03-18T04:11:47.394Z,1.20
2019-03-18T04:14:21.593Z,1.70
2019-03-18T04:17:04.816Z,1.10
2019-03-18T04:19:42.801Z,1.20
2019-03-18T04:22:12.669Z,1.55
2019-03-18T04:24:42.635Z,1.27
2019-03-18T04:27:12.733Z,1.10
2019-03-18T04:29:51.702Z,1.62
2019-03-18T04:32:23.602Z,1.70
2019-03-18T04:34:59.492Z,1.20
2019-03-18T04:37:31.553Z,1.25
2019-03-18T04:40:03.799Z,1.60
2019-03-18T04:42:33.503Z,1.10
2019-03-18T04:45:04.095Z,1.15
2019-03-18T04:47:34.793Z,1.45
2019-03-18T04:50:06.217Z,1.12
2019-03-18T04:52:41.846Z,1.12
2019-03-18T04:55:11.892Z,1.77
2019-03-18T04:57:41.979Z,1.00
2019-03-18T05:00:14.003Z,1.10
2019-03-18T05:02:51.087Z,0.93
2019-03-18T05:05:21.179Z,1.15
2019-03-18T05:07:51.007Z,1.25
2019-03-18T05:10:24.335Z,1.50
2019-03-18T05:13:01.219Z,1.65
2019-03-18T05:15:32.252Z,1.10
2019-03-18T05:18:02.345Z,1.10
2019-03-18T05:20:32.445Z,1.20
2019-03-18T05:23:11.574Z,1.20
2019-03-18T05:25:41.772Z,0.98
2019-03-18T05:28:12.583Z,1.15
2019-03-18T05:30:42.541Z,1.30
2019-03-18T05:33:12.635Z,1.00
2019-03-18T05:35:48.839Z,1.25
2019-03-18T05:38:18.937Z,1.15
2019-03-18T05:40:49.969Z,1.00
2019-03-18T05:43:19.788Z,1.40
2019-03-18T05:45:49.749Z,1.42
2019-03-18T05:48:20.492Z,1.25
2019-03-18T05:50:50.464Z,1.10
2019-03-18T05:53:20.561Z,1.50
2019-03-18T05:55:50.395Z,1.00
2019-03-18T05:58:21.135Z,1.20
2019-03-18T06:00:59.891Z,1.20
2019-03-18T06:03:29.856Z,1.02
2019-03-18T06:06:00.906Z,1.07
2019-03-18T06:08:40.079Z,1.57
2019-03-18T06:11:10.040Z,1.70
2019-03-18T06:13:40.129Z,1.10
2019-03-18T06:16:10.057Z,1.25
2019-03-18T06:18:40.993Z,1.25
2019-03-18T06:21:11.840Z,1.17
2019-03-18T06:23:41.776Z,1.10
2019-03-18T06:26:12.816Z,1.20
2019-03-18T06:28:42.909Z,1.70
2019-03-18T06:31:12.735Z,1.42
2019-03-18T06:33:57.803Z,1.15
2019-03-18T06:36:29.847Z,1.30
2019-03-18T06:38:59.931Z,1.17
2019-03-18T06:41:30.128Z,1.40
2019-03-18T06:44:06.279Z,1.40
2019-03-18T06:46:36.384Z,1.20
2019-03-18T06:49:12.231Z,1.20
2019-03-18T06:51:43.265Z,1.02
2019-03-18T06:54:13.248Z,1.30
2019-03-18T06:56:43.218Z,1.35
2019-03-18T06:59:13.044Z,1.40
2019-03-18T07:01:42.736Z,1.27
2019-03-18T07:04:12.438Z,1.57
2019-03-18T07:06:43.124Z,1.65
2019-03-18T07:09:12.807Z,1.30
2019-03-18T07:11:42.758Z,0.90
2019-03-18T07:14:12.849Z,1.07
2019-03-18T07:16:45.412Z,1.37
2019-03-18T07:19:15.472Z,1.55
2019-03-18T07:21:45.554Z,1.07
2019-03-18T07:24:21.983Z,1.20
2019-03-18T07:26:55.087Z,1.40
2019-03-18T07:29:25.210Z,1.17
2019-03-18T07:31:55.007Z,1.42
2019-03-18T07:34:24.965Z,1.65
2019-03-18T07:37:00.963Z,0.90
2019-03-18T07:39:32.799Z,1.10
2019-03-18T07:42:02.747Z,2.27
2019-03-18T07:44:33.789Z,2.55
2019-03-18T07:47:09.390Z,1.60
2019-03-18T07:49:39.231Z,1.40
2019-03-18T07:52:11.122Z,2.02
2019-03-18T07:54:40.940Z,1.10
2019-03-18T07:57:10.896Z,1.40
2019-03-18T07:59:43.333Z,1.45
2019-03-18T08:02:13.172Z,1.77
2019-03-18T08:04:44.756Z,1.50
2019-03-18T08:07:14.448Z,1.65
2019-03-18T08:09:44.418Z,1.35
2019-03-18T08:12:14.337Z,1.85
2019-03-18T08:14:44.031Z,1.40
2019-03-18T08:17:14.727Z,1.60
2019-03-18T08:19:48.177Z,1.12
2019-03-18T08:22:18.935Z,2.07
2019-03-18T08:24:48.680Z,1.30
2019-03-18T08:27:20.287Z,1.80
2019-03-18T08:29:49.973Z,1.00
2019-03-18T08:32:20.641Z,0.90
2019-03-18T08:34:53.237Z,0.77
2019-03-18T08:37:23.432Z,1.30
2019-03-18T08:39:55.445Z,1.10
2019-03-18T08:42:25.544Z,1.07
2019-03-18T08:44:58.009Z,1.03
2019-03-18T08:47:27.931Z,1.50
2019-03-18T08:49:59.905Z,1.37
2019-03-18T08:52:32.689Z,1.00
2019-03-18T08:55:02.546Z,0.90
2019-03-18T08:57:32.224Z,1.10
2019-03-18T09:00:13.028Z,1.67
2019-03-18T09:02:42.731Z,0.90
2019-03-18T09:05:12.584Z,0.90
2019-03-18T09:07:42.528Z,1.60
2019-03-18T09:10:14.479Z,1.07
2019-03-18T09:12:44.488Z,1.00
2019-03-18T09:15:14.869Z,1.20
2019-03-18T09:17:44.816Z,0.97
2019-03-18T09:20:16.088Z,1.35
2019-03-18T09:22:46.052Z,1.30
2019-03-18T09:25:18.737Z,1.40
2019-03-18T09:27:50.593Z,1.00
2019-03-18T09:30:21.697Z,1.40
2019-03-18T09:32:51.392Z,1.55
2019-03-18T09:35:21.079Z,1.47
2019-03-18T09:37:51.036Z,1.67
2019-03-18T09:40:20.950Z,2.35
2019-03-18T09:42:50.635Z,1.55
2019-03-18T09:45:20.329Z,1.55
2019-03-18T09:47:50.036Z,2.00
2019-03-18T09:50:20.062Z,2.00
2019-03-18T09:52:57.174Z,2.35
2019-03-18T09:55:27.005Z,1.52
2019-03-18T09:57:57.576Z,1.20
2019-03-18T10:00:27.283Z,1.80
2019-03-18T10:02:57.235Z,2.00
2019-03-18T10:05:27.231Z,1.50
2019-03-18T10:07:58.226Z,1.30
2019-03-18T10:10:28.241Z,1.30
2019-03-18T10:12:58.331Z,1.10
2019-03-18T10:15:28.507Z,1.30
2019-03-18T10:17:59.583Z,1.57
2019-03-18T10:20:29.270Z,1.90
2019-03-18T10:22:59.317Z,1.60
2019-03-18T10:25:29.176Z,1.50
2019-03-18T10:28:00.038Z,1.30
2019-03-18T10:30:30.835Z,1.80
2019-03-18T10:33:01.819Z,1.65
2019-03-18T10:35:31.744Z,1.65
2019-03-18T10:38:01.701Z,1.47
2019-03-18T10:40:31.516Z,1.90
2019-03-18T10:43:04.537Z,1.70
2019-03-18T10:45:34.973Z,1.90
2019-03-18T10:48:06.796Z,1.60
2019-03-18T10:50:36.757Z,1.53
2019-03-18T10:53:06.690Z,1.53
2019-03-18T10:55:36.388Z,1.17
2019-03-18T10:58:06.988Z,1.50
2019-03-18T11:00:36.696Z,1.90
2019-03-18T11:03:06.661Z,1.87
2019-03-18T11:05:36.516Z,1.87
2019-03-18T11:08:06.484Z,1.20
2019-03-18T11:10:36.204Z,1.20
2019-03-18T11:13:05.888Z,1.43
2019-03-18T11:15:35.588Z,1.50
2019-03-18T11:18:12.273Z,1.47
2019-03-18T11:20:42.112Z,1.60
2019-03-18T11:23:17.095Z,1.37
2019-03-18T11:25:48.113Z,1.60
2019-03-18T11:28:18.141Z,1.20
2019-03-18T11:30:53.994Z,1.33
2019-03-18T11:33:25.034Z,1.30
2019-03-18T11:35:58.372Z,1.30
2019-03-18T11:38:28.486Z,1.10
2019-03-18T11:40:59.488Z,1.70
2019-03-18T11:43:29.579Z,1.87
2019-03-18T11:46:01.675Z,1.77
2019-03-18T11:48:31.766Z,1.30
2019-03-18T11:51:05.081Z,1.60
2019-03-18T11:53:35.883Z,1.13
2019-03-18T11:56:09.821Z,1.87
2019-03-18T11:58:40.009Z,1.90
2019-03-18T12:01:09.834Z,2.00
2019-03-18T12:03:40.704Z,1.23
2019-03-18T12:06:10.520Z,1.60
2019-03-18T12:08:43.150Z,1.40
2019-03-18T12:11:13.250Z,1.07
2019-03-18T12:13:43.990Z,1.20
2019-03-18T12:16:13.951Z,1.00
2019-03-18T12:18:44.063Z,1.40
2019-03-18T12:21:16.086Z,2.00
2019-03-18T12:23:46.250Z,1.37
2019-03-18T12:26:17.309Z,2.62
2019-03-18T12:28:53.625Z,2.33
2019-03-18T12:31:23.552Z,1.53
2019-03-18T12:33:57.272Z,1.93
2019-03-18T12:36:26.393Z,1.30
2019-03-18T12:38:57.176Z,1.67
2019-03-18T12:41:26.879Z,1.50
2019-03-18T12:43:56.915Z,1.43
2019-03-18T12:46:32.739Z,1.53
2019-03-18T12:49:03.684Z,1.80
2019-03-18T12:51:33.790Z,1.63
2019-03-18T12:54:08.987Z,1.63
2019-03-18T12:56:39.692Z,1.30
2019-03-18T12:59:10.655Z,1.30
2019-03-18T13:01:42.635Z,1.70
2019-03-18T13:04:18.715Z,1.80
2019-03-18T13:06:48.408Z,2.00
2019-03-18T13:09:20.337Z,1.23
2019-03-18T13:11:50.499Z,2.07
2019-03-18T13:14:20.402Z,1.53
2019-03-18T13:16:51.230Z,1.83
2019-03-18T13:19:22.080Z,1.40
2019-03-18T13:21:52.916Z,1.97
2019-03-18T13:24:24.657Z,1.90
2019-03-18T13:26:58.505Z,1.57
2019-03-18T13:29:27.375Z,1.70
2019-03-18T13:31:57.466Z,1.40
2019-03-18T13:34:27.298Z,2.17
2019-03-18T13:36:57.261Z,1.77
2019-03-18T13:39:27.335Z,3.40
2019-03-18T13:41:57.310Z,2.23
2019-03-18T13:44:29.152Z,1.93
2019-03-18T13:47:00.448Z,2.10
2019-03-18T13:49:30.292Z,2.17
2019-03-18T13:52:04.884Z,2.10
2019-03-18T13:54:35.010Z,2.00
2019-03-18T13:57:05.108Z,2.00
2019-03-18T13:59:35.298Z,2.10
2019-03-18T14:02:05.526Z,2.27
2019-03-18T14:04:36.328Z,2.00
2019-03-18T14:07:06.285Z,1.40
2019-03-18T14:09:37.068Z,2.00
2019-03-18T14:12:07.054Z,1.87
2019-03-18T14:14:36.908Z,2.20
2019-03-18T14:17:07.592Z,2.00
2019-03-18T14:19:43.228Z,1.80
2019-03-18T14:22:14.248Z,3.77
2019-03-18T14:24:50.072Z,3.60
2019-03-18T14:27:20.103Z,3.40
2019-03-18T14:29:50.924Z,2.33
2019-03-18T14:32:20.612Z,1.60
2019-03-18T14:34:54.915Z,1.60
2019-03-18T14:37:33.672Z,2.07
2019-03-18T14:40:04.172Z,1.70
2019-03-18T14:42:34.267Z,1.80
2019-03-18T14:45:20.062Z,1.30
2019-03-18T14:47:49.896Z,1.17
2019-03-18T14:50:20.609Z,2.07
2019-03-18T14:52:50.614Z,1.47
2019-03-18T14:55:30.408Z,1.43
2019-03-18T14:58:01.303Z,1.90
2019-03-18T15:00:31.356Z,1.90
2019-03-18T15:03:01.041Z,2.37
2019-03-18T15:05:30.732Z,1.40
2019-03-18T15:08:02.685Z,1.57
2019-03-18T15:10:32.773Z,1.33
2019-03-18T15:13:08.538Z,1.20
2019-03-18T15:15:38.221Z,1.40
2019-03-18T15:18:09.065Z,1.60
2019-03-18T15:20:39.146Z,1.80
2019-03-18T15:23:09.322Z,1.90
2019-03-18T15:25:39.442Z,1.57
2019-03-18T15:28:09.273Z,2.40
2019-03-18T15:30:45.013Z,1.10
2019-03-18T15:33:15.131Z,1.00
2019-03-18T15:35:45.238Z,1.27
2019-03-18T15:38:19.558Z,2.30
2019-03-18T15:40:55.186Z,1.43
2019-03-18T15:43:26.825Z,2.27
2019-03-18T15:45:57.039Z,1.80
2019-03-18T15:48:26.870Z,2.00
2019-03-18T15:50:56.846Z,2.00
2019-03-18T15:53:27.958Z,1.40
2019-03-18T15:55:58.050Z,2.37
2019-03-18T15:58:36.913Z,2.80
2019-03-18T16:01:08.893Z,2.40
2019-03-18T16:03:49.801Z,3.57
2019-03-18T16:06:19.750Z,2.10
2019-03-18T16:08:55.564Z,2.03
2019-03-18T16:11:26.180Z,1.60
2019-03-18T16:13:56.844Z,3.13
2019-03-18T16:16:27.499Z,1.30
2019-03-18T16:18:57.443Z,1.43
2019-03-18T16:21:29.257Z,1.33
2019-03-18T16:23:59.216Z,1.60
2019-03-18T16:26:29.304Z,2.03
2019-03-18T16:28:59.399Z,1.10
2019-03-18T16:31:35.470Z,0.80
2019-03-18T16:34:17.590Z,1.60
2019-03-18T16:36:49.662Z,1.13
2019-03-18T16:39:20.285Z,0.90
2019-03-18T16:41:56.344Z,2.00
2019-03-18T16:44:29.996Z,5.60
2019-03-18T16:47:06.637Z,1.37
2019-03-18T16:49:40.621Z,1.40
2019-03-18T16:52:10.469Z,1.83
2019-03-18T16:54:42.298Z,1.10
2019-03-18T16:57:12.422Z,1.55
2019-03-18T16:59:43.458Z,1.25
2019-03-18T17:02:18.680Z,0.98
2019-03-18T17:04:53.676Z,2.02
2019-03-18T17:07:23.626Z,1.52
2019-03-18T17:09:59.724Z,2.42
2019-03-18T17:12:29.560Z,1.00
2019-03-18T17:15:00.249Z,0.93
2019-03-18T17:17:30.332Z,1.05
2019-03-18T17:20:01.321Z,0.90
2019-03-18T17:22:31.447Z,1.20
2019-03-18T17:25:01.281Z,1.40
2019-03-18T17:27:32.207Z,1.30
2019-03-18T17:30:02.036Z,1.90
2019-03-18T17:32:31.984Z,2.58
2019-03-18T17:35:02.070Z,1.55
2019-03-18T17:37:32.927Z,2.95
2019-03-18T17:40:03.147Z,3.10
2019-03-18T17:42:35.222Z,9.00
2019-03-18T17:45:08.800Z,3.17
2019-03-18T17:47:38.484Z,2.05
2019-03-18T17:50:22.463Z,2.10
2019-03-18T17:53:02.585Z,2.37
2019-03-18T17:55:26.267Z,1.22
2019-03-18T17:57:56.105Z,1.10
2019-03-18T18:00:42.381Z,1.00
2019-03-18T18:03:12.716Z,1.85
2019-03-18T18:05:42.806Z,0.80
2019-03-18T18:08:13.888Z,1.15
2019-03-18T18:10:44.882Z,1.17
2019-03-18T18:13:14.726Z,2.67
2019-03-18T18:15:44.681Z,1.80
2019-03-18T18:18:14.784Z,1.65
2019-03-18T18:20:44.889Z,1.87
2019-03-18T18:23:15.262Z,2.67
2019-03-18T18:25:45.436Z,2.05
2019-03-18T18:28:23.565Z,3.25
2019-03-18T18:30:55.397Z,14.45
2019-03-18T18:33:25.110Z,4.90
2019-03-18T18:35:55.064Z,3.33
2019-03-18T18:38:25.836Z,3.45
2019-03-18T18:41:01.918Z,3.35
2019-03-18T18:43:33.681Z,3.25
2019-03-18T18:46:04.628Z,3.12
2019-03-18T18:48:34.496Z,1.90
2019-03-18T18:51:04.568Z,1.40
2019-03-18T18:53:41.288Z,1.30
2019-03-18T18:56:11.000Z,1.42
2019-03-18T18:58:40.723Z,1.95
2019-03-18T19:01:13.322Z,0.90
2019-03-18T19:03:43.657Z,2.50
2019-03-18T19:06:13.606Z,2.08
2019-03-18T19:08:48.999Z,3.80
2019-03-18T19:11:26.648Z,1.65
2019-03-18T19:13:58.864Z,2.55
2019-03-18T19:16:30.586Z,0.90
2019-03-18T19:19:00.536Z,3.00
2019-03-18T19:21:33.863Z,1.55
2019-03-18T19:24:04.588Z,2.02
2019-03-18T19:26:38.411Z,1.70
2019-03-18T19:29:09.908Z,4.70
2019-03-18T19:31:41.953Z,4.42
2019-03-18T19:34:17.592Z,15.35
2019-03-18T19:36:47.320Z,6.08
2019-03-18T19:39:17.294Z,6.03
2019-03-18T19:41:47.155Z,6.10
2019-03-18T19:44:18.100Z,1.70
2019-03-18T19:46:52.028Z,1.00
2019-03-18T19:49:21.860Z,0.90
2019-03-18T19:51:52.536Z,1.02
2019-03-18T19:54:22.236Z,1.25
2019-03-18T19:56:55.488Z,1.00
2019-03-18T19:59:26.400Z,1.12
2019-03-18T20:01:58.468Z,1.00
2019-03-18T20:04:30.987Z,1.45
2019-03-18T20:07:06.468Z,1.52
2019-03-18T20:09:36.172Z,1.75
2019-03-18T20:12:06.198Z,1.70
2019-03-18T20:14:37.120Z,2.75
2019-03-18T20:17:07.122Z,3.25
2019-03-18T20:19:37.118Z,3.60
2019-03-18T20:22:07.012Z,13.15
2019-03-18T20:24:43.801Z,8.83
2019-03-18T20:27:13.920Z,7.22
2019-03-18T20:29:44.020Z,7.12
2019-03-18T20:32:14.118Z,8.48
2019-03-18T20:34:46.047Z,4.60
2019-03-18T20:37:15.869Z,2.42
2019-03-18T20:39:47.004Z,3.02
2019-03-18T20:42:19.362Z,2.67
2019-03-18T20:44:49.205Z,3.20
2019-03-18T20:47:28.627Z,3.08
2019-03-18T20:49:59.136Z,2.70
2019-03-18T20:52:32.490Z,3.27
2019-03-18T20:55:02.148Z,4.55
2019-03-18T20:57:33.821Z,5.17
2019-03-18T21:00:16.769Z,5.58
2019-03-18T21:02:49.525Z,4.55
2019-03-18T21:05:19.630Z,5.25
2019-03-18T21:07:52.061Z,4.30
2019-03-18T21:10:23.032Z,4.90
2019-03-18T21:12:53.136Z,5.05
2019-03-18T21:15:25.133Z,4.35
2019-03-18T21:17:55.064Z,3.98
2019-03-18T21:20:32.054Z,2.60
2019-03-18T21:23:03.526Z,3.22
2019-03-18T21:25:41.944Z,3.00
2019-03-18T21:28:11.996Z,3.25
2019-03-18T21:30:52.308Z,3.10
2019-03-18T21:33:23.068Z,3.40
2019-03-18T21:35:56.577Z,3.80
2019-03-18T21:38:26.412Z,4.30
2019-03-18T21:40:57.376Z,4.10
2019-03-18T21:43:27.492Z,3.72
2019-03-18T21:45:57.630Z,3.40
2019-03-18T21:48:27.733Z,4.60
2019-03-18T21:50:58.894Z,4.62
2019-03-18T21:53:28.988Z,4.35
2019-03-18T21:56:00.978Z,4.45
2019-03-18T21:58:33.151Z,3.90
2019-03-18T22:01:03.177Z,4.45
2019-03-18T22:03:33.132Z,3.95
2019-03-18T22:06:02.820Z,5.00
2019-03-18T22:08:32.786Z,4.25
2019-03-18T22:11:03.581Z,4.08
2019-03-18T22:13:33.275Z,3.92
2019-03-18T22:16:03.276Z,3.55
2019-03-18T22:18:45.885Z,4.42
2019-03-18T22:21:15.796Z,3.80
2019-03-18T22:23:46.725Z,4.75
2019-03-18T22:26:16.592Z,4.20
2019-03-18T22:28:50.498Z,3.80
2019-03-18T22:31:21.800Z,4.20
2019-03-18T22:33:54.077Z,4.00
2019-03-18T22:36:26.521Z,4.05
2019-03-18T22:38:56.484Z,4.40
2019-03-18T22:41:27.312Z,4.30
2019-03-18T22:43:57.284Z,5.15
2019-03-18T22:46:30.277Z,4.40
2019-03-18T22:49:00.105Z,4.80
2019-03-18T22:51:33.456Z,4.12
2019-03-18T22:54:06.937Z,4.25
2019-03-18T22:56:37.052Z,4.53
2019-03-18T22:59:09.148Z,4.53
2019-03-18T23:01:41.562Z,4.70
2019-03-18T23:04:11.501Z,4.25
2019-03-18T23:06:44.194Z,3.87
2019-03-18T23:09:14.005Z,3.67
2019-03-18T23:11:49.632Z,3.47
2019-03-18T23:14:19.680Z,3.80
2019-03-18T23:16:50.740Z,4.25
2019-03-18T23:19:21.118Z,4.00
2019-03-18T23:21:51.860Z,4.28
2019-03-18T23:24:27.497Z,3.70
2019-03-18T23:26:57.469Z,3.77
2019-03-18T23:29:31.579Z,4.00
2019-03-18T23:32:01.441Z,3.37
2019-03-18T23:34:37.232Z,4.47
2019-03-18T23:37:18.348Z,3.60
2019-03-18T23:39:48.478Z,4.20
2019-03-18T23:42:18.264Z,2.83
2019-03-18T23:44:48.246Z,3.45
2019-03-18T23:47:19.041Z,4.03
2019-03-18T23:49:49.690Z,4.28
2019-03-18T23:52:24.607Z,4.00
2019-03-18T23:54:55.356Z,3.50
2019-03-18T23:57:27.136Z,4.03
2019-03-18T23:59:58.215Z,4.78
